This is the latest recevied weather packets stored in our database for station/object VA3ECP. If no packets are shown the sender has not sent any weather packets the latest 10 day(s).
| Time | Temp. | Humidity | Pressure | Rain* | Wind** | Luminosity | Snow |
|---|---|---|---|---|---|---|---|
| 1777272628 | 4.44° C | 78% | 1023.5 hPa | 0 mm | - | - | - |
| 1777260622 | 8.89° C | 67% | 1022.5 hPa | 0 mm | - | - | - |
| 1777260020 | 8.89° C | 68% | 1022.5 hPa | 0 mm | - | - | - |
| 1777257032 | 10° C | 63% | 1022.4 hPa | 0 mm | - | - | - |
| 1777255230 | 11.11° C | 59% | 1022.5 hPa | 0 mm | - | - | - |
| 1777252822 | 12.22° C | 54% | 1022.3 hPa | 0 mm | - | - | - |
| 1777251633 | 13.33° C | 52% | 1022 hPa | 0 mm | - | - | - |
| 1777251020 | 13.89° C | 52% | 1021.9 hPa | 0 mm | - | - | - |
| 1777249226 | 15° C | 47% | 1021.6 hPa | 0 mm | - | - | - |
| 1777245021 | 18.33° C | 41% | 1021 hPa | 0 mm | - | - | - |
| 1777243232 | 18.33° C | 39% | 1021 hPa | 0 mm | - | - | - |
| 1777242029 | 18.89° C | 39% | 1020.9 hPa | 0 mm | - | - | - |
| 1777236629 | 20° C | 38% | 1020.6 hPa | 0 mm | - | - | - |
| 1777234827 | 20° C | 38% | 1020.7 hPa | 0 mm | - | - | - |
| 1777234222 | 21.11° C | 39% | 1020.6 hPa | 0 mm | - | - | - |
| 1777228823 | 20.56° C | 40% | 1021.4 hPa | 0 mm | - | - | - |
| 1777227021 | 20° C | 41% | 1021.6 hPa | 0 mm | - | - | - |
| 1777220421 | 20° C | 43% | 1022.3 hPa | 0 mm | - | - | - |
| 1777218626 | 19.44° C | 44% | 1022.5 hPa | 0 mm | - | - | - |
| 1777218022 | 17.78° C | 43% | 1022.4 hPa | 0 mm | - | - | - |
| 1777216820 | 18.33° C | 45% | 1022.5 hPa | 0 mm | - | - | - |
| 1777213835 | 16.11° C | 49% | 1022.5 hPa | 0 mm | - | - | - |
| 1777212624 | 16.11° C | 51% | 1022.5 hPa | 0 mm | - | - | - |
| 1777209025 | 13.33° C | 58% | 1022.2 hPa | 0 mm | - | - | - |
| 1777202421 | 2.78° C | 91% | 1021.5 hPa | 0 mm | - | - | - |
* Rain latest hour (hover to see other rain measurements)
** Current wind speed in m/s (hover to see current wind gust speed)